createdAt,value
2018-08-07T09:46:02.443Z,3432.00
2018-08-07T09:47:02.580Z,3548.00
2018-08-07T09:48:02.721Z,3612.00
2018-08-07T09:49:02.876Z,3636.00
2018-08-07T09:50:03.010Z,3656.00
2018-08-07T09:51:03.153Z,3600.00
2018-08-07T09:52:03.294Z,3668.00
2018-08-07T09:53:03.568Z,3664.00
2018-08-07T09:54:03.580Z,3640.00
2018-08-07T09:55:03.729Z,3512.00
2018-08-07T09:56:03.891Z,3432.00
2018-08-07T09:57:03.995Z,3352.00
2018-08-07T09:58:04.139Z,3428.00
2018-08-07T09:59:04.282Z,3456.00
2018-08-07T10:00:04.454Z,3460.00
2018-08-07T10:01:04.578Z,3448.00
2018-08-07T10:02:04.723Z,3352.00
2018-08-07T10:03:04.879Z,3340.00
2018-08-07T10:04:05.026Z,3432.00
2018-08-07T10:05:05.241Z,3572.00
2018-08-07T10:06:05.315Z,3672.00
2018-08-07T10:07:05.461Z,3640.00
2018-08-07T10:08:05.628Z,3728.00
2018-08-07T10:09:05.766Z,3676.00
2018-08-07T10:10:05.904Z,3728.00
2018-08-07T10:11:06.041Z,3716.00
2018-08-07T10:12:06.212Z,3796.00
2018-08-07T10:13:06.344Z,3832.00
2018-08-07T10:14:06.484Z,3844.00
2018-08-07T10:15:06.631Z,3768.00
2018-08-07T10:16:06.794Z,3656.00
2018-08-07T10:17:06.940Z,3548.00
2018-08-07T10:18:07.085Z,3516.00
2018-08-07T10:19:07.228Z,3396.00
2018-08-07T10:20:07.397Z,3316.00
2018-08-07T10:21:07.533Z,3468.00
2018-08-07T10:22:07.682Z,3456.00
2018-08-07T10:23:07.847Z,3428.00
2018-08-07T10:24:08.052Z,3444.00
2018-08-07T10:25:08.173Z,3492.00
2018-08-07T10:26:08.290Z,3504.00
2018-08-07T10:27:08.434Z,3764.00
2018-08-07T10:28:08.591Z,3896.00
2018-08-07T10:29:08.737Z,3944.00
2018-08-07T10:30:08.882Z,4072.00
2018-08-07T10:31:09.029Z,4012.00
2018-08-07T10:32:09.193Z,4132.00
2018-08-07T10:33:09.348Z,4020.00
2018-08-07T10:34:09.495Z,4072.00
2018-08-07T10:35:09.841Z,4064.00
2018-08-07T10:36:09.795Z,4092.00
2018-08-07T10:37:09.939Z,4184.00
2018-08-07T10:38:10.138Z,4540.00
2018-08-07T10:39:10.285Z,4284.00
2018-08-07T10:40:10.465Z,4704.00
2018-08-07T10:41:10.656Z,4444.00
2018-08-07T10:42:10.737Z,4472.00
2018-08-07T10:43:10.927Z,4588.00
2018-08-07T10:44:11.076Z,4760.00
2018-08-07T10:45:11.208Z,4792.00
2018-08-07T10:46:11.349Z,4768.00
2018-08-07T10:47:11.544Z,4868.00
2018-08-07T10:48:11.664Z,5204.00
2018-08-07T10:49:11.802Z,4976.00
2018-08-07T10:50:11.964Z,5260.00
2018-08-07T10:51:12.104Z,5344.00
2018-08-07T10:52:12.265Z,5436.00
2018-08-07T10:53:12.413Z,5548.00
2018-08-07T10:54:12.802Z,5568.00
2018-08-07T10:55:12.728Z,5532.00
2018-08-07T10:56:12.878Z,5604.00
2018-08-07T10:57:13.021Z,5404.00
2018-08-07T10:58:13.202Z,5356.00
2018-08-07T10:59:13.315Z,5308.00
2018-08-07T11:00:13.461Z,5316.00
2018-08-07T11:01:13.607Z,5356.00
2018-08-07T11:02:13.771Z,5816.00
2018-08-07T11:03:13.911Z,5528.00
2018-08-07T11:04:14.058Z,5480.00
2018-08-07T11:05:14.204Z,5512.00
2018-08-07T11:06:14.362Z,5524.00
2018-08-07T11:07:14.517Z,5916.00
2018-08-07T11:08:14.648Z,5760.00
2018-08-07T11:09:14.794Z,5584.00
2018-08-07T11:10:14.956Z,6132.00
2018-08-07T11:11:15.097Z,5748.00
2018-08-07T11:12:15.243Z,5900.00
2018-08-07T11:13:15.393Z,6428.00
2018-08-07T11:14:15.543Z,6568.00
2018-08-07T11:15:15.687Z,6560.00
2018-08-07T11:16:15.829Z,6516.00
2018-08-07T11:17:16.103Z,6664.00
2018-08-07T11:18:16.116Z,6960.00
2018-08-07T11:19:16.264Z,7220.00
2018-08-07T11:20:16.457Z,7392.00
2018-08-07T11:21:16.576Z,7420.00
2018-08-07T11:22:16.718Z,6956.00
2018-08-07T11:23:16.871Z,6960.00
2018-08-07T11:24:17.040Z,8008.00
2018-08-07T11:25:17.191Z,7692.00
2018-08-07T11:26:17.342Z,7288.00
2018-08-07T11:27:17.491Z,7812.00
2018-08-07T11:28:17.673Z,7304.00
2018-08-07T11:29:17.800Z,8040.00
2018-08-07T11:30:17.948Z,7368.00
2018-08-07T11:31:18.096Z,7068.00
2018-08-07T11:32:18.261Z,7164.00
2018-08-07T11:33:18.396Z,6480.00
2018-08-07T11:34:18.548Z,6676.00
2018-08-07T11:35:18.693Z,6336.00
2018-08-07T11:36:18.848Z,6472.00
2018-08-07T11:37:18.989Z,6348.00
2018-08-07T11:38:19.145Z,6076.00
2018-08-07T11:39:19.293Z,6272.00
2018-08-07T11:40:19.440Z,6524.00
2018-08-07T11:41:19.654Z,6636.00
2018-08-07T11:42:19.731Z,6576.00
2018-08-07T11:43:19.878Z,6488.00
2018-08-07T11:44:20.037Z,6488.00
2018-08-07T11:45:20.183Z,6596.00
2018-08-07T11:46:20.327Z,6768.00
2018-08-07T11:47:20.474Z,7964.00
2018-08-07T11:48:20.728Z,8312.00
2018-08-07T11:49:20.788Z,7016.00
2018-08-07T11:50:20.937Z,6920.00
2018-08-07T11:51:21.083Z,7436.00
2018-08-07T11:52:21.287Z,7352.00
2018-08-07T11:53:21.398Z,7260.00
2018-08-07T11:54:21.549Z,8276.00
2018-08-07T11:55:21.695Z,8408.00
2018-08-07T11:56:21.914Z,8408.00
2018-08-07T11:57:22.005Z,8304.00
2018-08-07T11:58:22.155Z,8448.00
2018-08-07T11:59:22.306Z,8000.00
2018-08-07T12:00:22.474Z,7752.00
2018-08-07T12:01:22.613Z,6876.00
2018-08-07T12:02:22.831Z,7556.00
2018-08-07T12:03:22.917Z,9132.00
2018-08-07T12:04:23.076Z,9364.00
2018-08-07T12:05:23.217Z,9212.00
2018-08-07T12:06:23.464Z,9120.00
2018-08-07T12:07:23.487Z,9192.00
2018-08-07T12:08:23.659Z,9248.00
2018-08-07T12:09:23.799Z,9152.00
2018-08-07T12:10:23.953Z,8968.00
2018-08-07T12:11:24.104Z,9160.00
2018-08-07T12:12:24.264Z,9284.00
2018-08-07T12:13:24.408Z,9220.00
2018-08-07T12:14:24.558Z,9240.00
2018-08-07T12:15:24.710Z,9008.00
2018-08-07T12:16:24.966Z,9152.00
2018-08-07T12:17:25.008Z,8920.00
2018-08-07T12:18:25.163Z,8664.00
2018-08-07T12:19:25.309Z,8536.00
2018-08-07T12:20:25.484Z,8640.00
2018-08-07T12:21:25.626Z,8460.00
2018-08-07T12:22:25.775Z,8220.00
2018-08-07T12:23:25.923Z,8436.00
2018-08-07T12:24:26.214Z,8452.00
2018-08-07T12:25:26.244Z,8748.00
2018-08-07T12:26:26.394Z,8872.00
2018-08-07T12:27:26.545Z,8988.00
2018-08-07T12:28:26.734Z,8156.00
2018-08-07T12:29:26.877Z,8964.00
2018-08-07T12:30:27.025Z,8140.00
2018-08-07T12:31:27.176Z,7916.00
2018-08-07T12:32:27.349Z,7948.00
2018-08-07T12:33:27.498Z,8080.00
2018-08-07T12:34:27.652Z,8132.00
2018-08-07T12:35:27.789Z,7904.00
2018-08-07T12:36:27.949Z,8864.00
2018-08-07T12:37:28.094Z,7660.00
2018-08-07T12:38:28.245Z,8852.00
2018-08-07T12:39:28.394Z,7860.00
2018-08-07T12:40:28.617Z,8608.00
2018-08-07T12:41:28.697Z,8952.00
2018-08-07T12:42:28.846Z,8952.00
2018-08-07T12:43:28.994Z,8404.00
2018-08-07T12:44:29.145Z,9528.00
2018-08-07T12:45:29.288Z,9624.00
2018-08-07T12:46:29.488Z,9960.00
2018-08-07T12:47:29.589Z,10136.00
2018-08-07T12:48:29.755Z,9776.00
2018-08-07T12:49:29.898Z,9408.00
2018-08-07T12:50:30.048Z,8620.00
2018-08-07T12:51:30.199Z,8760.00
2018-08-07T12:52:30.361Z,8168.00
2018-08-07T12:53:30.498Z,7924.00
2018-08-07T12:54:30.656Z,7860.00
2018-08-07T12:55:30.802Z,8128.00
2018-08-07T12:56:30.976Z,7944.00
2018-08-07T12:57:31.115Z,7788.00
2018-08-07T12:58:31.259Z,8696.00
2018-08-07T12:59:31.407Z,8968.00
2018-08-07T13:00:31.554Z,9012.00
2018-08-07T13:01:31.716Z,8972.00
2018-08-07T13:02:31.862Z,9004.00
2018-08-07T13:03:32.009Z,8856.00
2018-08-07T13:04:32.163Z,8772.00
2018-08-07T13:05:32.313Z,8504.00
2018-08-07T13:06:32.460Z,8444.00
2018-08-07T13:07:32.613Z,8716.00
2018-08-07T13:08:32.766Z,8496.00
2018-08-07T13:09:32.931Z,8680.00
2018-08-07T13:10:33.065Z,8636.00
2018-08-07T13:11:33.214Z,8840.00
2018-08-07T13:12:33.369Z,8716.00
2018-08-07T13:13:33.517Z,8472.00
2018-08-07T13:14:33.662Z,8492.00
2018-08-07T13:15:33.815Z,8360.00
2018-08-07T13:16:33.963Z,8428.00
2018-08-07T13:17:34.133Z,8232.00
2018-08-07T13:18:34.272Z,8164.00
2018-08-07T13:19:34.420Z,8140.00
2018-08-07T13:20:34.574Z,7976.00
2018-08-07T13:21:34.728Z,7892.00
2018-08-07T13:22:34.873Z,7912.00
2018-08-07T13:23:35.026Z,7844.00
2018-08-07T13:24:35.176Z,7556.00
2018-08-07T13:25:35.336Z,7908.00
2018-08-07T13:26:35.516Z,8048.00
2018-08-07T13:27:35.634Z,8128.00
2018-08-07T13:28:35.832Z,8108.00
2018-08-07T13:29:35.981Z,8024.00
2018-08-07T13:30:36.147Z,8112.00
2018-08-07T13:31:36.355Z,6800.00
2018-08-07T13:32:36.440Z,6904.00
2018-08-07T13:33:36.607Z,6780.00
2018-08-07T13:34:36.754Z,7316.00
2018-08-07T13:35:36.906Z,7944.00
2018-08-07T13:36:37.057Z,7600.00
2018-08-07T13:37:37.205Z,7324.00
2018-08-07T13:38:37.353Z,6344.00
2018-08-07T13:39:37.502Z,6200.00
2018-08-07T13:40:37.659Z,7280.00
2018-08-07T13:41:37.803Z,6968.00
2018-08-07T13:42:37.955Z,6652.00
2018-08-07T13:43:38.139Z,6824.00
2018-08-07T13:44:38.288Z,7016.00
2018-08-07T13:45:38.440Z,7032.00
2018-08-07T13:46:38.597Z,7400.00
2018-08-07T13:47:38.743Z,7688.00
2018-08-07T13:48:38.897Z,8040.00
2018-08-07T13:49:39.049Z,8156.00
2018-08-07T13:50:39.193Z,8152.00
2018-08-07T13:51:39.340Z,8092.00
2018-08-07T13:52:39.495Z,7932.00
2018-08-07T13:53:39.657Z,7860.00
2018-08-07T13:54:39.804Z,7720.00
2018-08-07T13:55:39.948Z,6996.00
2018-08-07T13:56:40.098Z,7732.00
2018-08-07T13:57:40.253Z,7672.00
2018-08-07T13:58:40.401Z,7620.00
2018-08-07T13:59:40.548Z,7780.00
2018-08-07T14:00:40.705Z,7924.00
2018-08-07T14:01:40.856Z,8220.00
2018-08-07T14:02:41.006Z,8072.00
2018-08-07T14:03:41.160Z,7692.00
2018-08-07T14:04:41.303Z,7388.00
2018-08-07T14:05:41.444Z,7216.00
2018-08-07T14:06:41.597Z,7168.00
2018-08-07T14:07:41.753Z,7216.00
2018-08-07T14:08:41.911Z,6684.00
2018-08-07T14:09:42.067Z,6444.00
2018-08-07T14:10:42.217Z,6168.00
2018-08-07T14:11:42.375Z,5996.00
2018-08-07T14:12:42.528Z,6280.00
2018-08-07T14:13:42.681Z,6752.00
2018-08-07T14:14:42.832Z,6152.00
2018-08-07T14:15:43.007Z,5724.00
2018-08-07T14:16:43.136Z,5248.00
2018-08-07T14:17:43.297Z,5676.00
2018-08-07T14:18:43.434Z,6196.00
2018-08-07T14:19:43.586Z,6312.00
2018-08-07T14:20:43.739Z,6220.00
2018-08-07T14:21:43.880Z,6612.00
2018-08-07T14:22:44.047Z,6736.00
2018-08-07T14:23:44.197Z,7004.00
2018-08-07T14:24:44.350Z,6996.00
2018-08-07T14:25:44.496Z,7116.00
2018-08-07T14:26:44.659Z,7356.00
2018-08-07T14:27:44.805Z,7404.00
2018-08-07T14:28:44.961Z,7464.00
2018-08-07T14:29:45.106Z,7828.00
2018-08-07T14:30:45.267Z,8140.00
2018-08-07T14:31:45.418Z,8152.00
2018-08-07T14:32:45.573Z,8336.00
2018-08-07T14:33:45.725Z,8244.00
2018-08-07T14:34:45.868Z,8200.00
2018-08-07T14:35:46.020Z,7648.00
2018-08-07T14:36:46.240Z,8180.00
2018-08-07T14:37:46.324Z,7872.00
2018-08-07T14:38:46.474Z,7208.00
2018-08-07T14:39:46.629Z,6488.00
2018-08-07T14:40:46.773Z,5944.00
2018-08-07T14:41:46.944Z,5808.00
2018-08-07T14:42:47.098Z,5536.00
2018-08-07T14:43:47.250Z,5372.00
2018-08-07T14:44:47.397Z,5472.00
2018-08-07T14:45:47.546Z,5616.00
2018-08-07T14:46:47.700Z,5848.00
2018-08-07T14:47:47.866Z,6152.00
2018-08-07T14:48:48.014Z,5932.00
2018-08-07T14:49:48.162Z,6164.00
2018-08-07T14:50:48.311Z,6460.00
2018-08-07T14:51:48.462Z,6816.00
2018-08-07T14:52:48.613Z,7084.00
2018-08-07T14:53:48.760Z,6880.00
2018-08-07T14:54:48.911Z,6468.00
2018-08-07T14:55:49.149Z,6120.00
2018-08-07T14:56:49.258Z,6092.00
2018-08-07T14:57:49.443Z,6772.00
2018-08-07T14:58:49.501Z,6592.00
2018-08-07T14:59:49.619Z,6756.00
2018-08-07T15:00:49.764Z,6916.00
2018-08-07T15:01:49.932Z,7044.00
2018-08-07T15:02:50.071Z,7024.00
2018-08-07T15:03:50.232Z,7096.00
2018-08-07T15:04:50.389Z,7236.00
2018-08-07T15:05:50.536Z,7528.00
2018-08-07T15:06:50.679Z,7612.00
2018-08-07T15:07:50.832Z,7496.00
2018-08-07T15:08:50.995Z,7728.00
2018-08-07T15:09:51.191Z,7764.00
2018-08-07T15:10:51.284Z,7916.00
2018-08-07T15:11:51.437Z,8184.00
2018-08-07T15:12:51.587Z,8240.00
2018-08-07T15:13:51.731Z,8008.00
2018-08-07T15:14:51.878Z,7952.00
2018-08-07T15:15:52.028Z,7856.00
2018-08-07T15:16:52.177Z,7704.00
2018-08-07T15:17:52.329Z,7836.00
2018-08-07T15:18:52.481Z,7844.00
2018-08-07T15:19:52.691Z,7840.00
2018-08-07T15:20:52.828Z,7844.00
2018-08-07T15:21:52.945Z,7696.00
2018-08-07T15:22:53.088Z,7472.00
2018-08-07T15:23:53.250Z,7552.00
2018-08-07T15:24:53.485Z,7364.00
2018-08-07T15:25:53.547Z,7484.00
2018-08-07T15:26:53.695Z,7468.00
2018-08-07T15:27:53.842Z,7320.00
2018-08-07T15:28:53.993Z,7276.00
2018-08-07T15:29:54.139Z,7204.00
2018-08-07T15:30:54.292Z,7236.00
2018-08-07T15:31:54.448Z,7360.00
2018-08-07T15:32:54.609Z,7244.00
2018-08-07T15:33:54.822Z,7060.00
2018-08-07T15:34:54.922Z,6972.00
2018-08-07T15:35:55.069Z,7160.00
2018-08-07T15:36:55.222Z,7012.00
2018-08-07T15:37:55.403Z,6840.00
2018-08-07T15:38:55.584Z,6792.00
2018-08-07T15:39:55.747Z,6864.00
2018-08-07T15:40:55.897Z,6688.00
2018-08-07T15:41:56.059Z,6384.00
2018-08-07T15:42:56.204Z,6060.00
2018-08-07T15:43:56.360Z,5884.00
2018-08-07T15:44:56.510Z,5440.00
2018-08-07T15:45:56.655Z,5696.00
2018-08-07T15:46:56.812Z,5668.00
2018-08-07T15:47:56.973Z,5640.00
2018-08-07T15:48:57.136Z,5540.00
2018-08-07T15:49:57.284Z,5220.00
2018-08-07T15:50:57.440Z,5256.00
2018-08-07T15:51:57.585Z,5324.00
2018-08-07T15:52:57.774Z,4464.00
2018-08-07T15:53:57.884Z,3816.00
2018-08-07T15:54:58.036Z,3348.00
2018-08-07T15:55:58.179Z,2920.00
2018-08-07T15:56:58.329Z,2564.00
2018-08-07T15:57:58.478Z,2280.00
2018-08-07T15:58:58.622Z,2104.00
2018-08-07T15:59:58.775Z,2040.00
2018-08-07T16:00:58.918Z,1992.00
2018-08-07T16:01:59.071Z,2000.00
2018-08-07T16:02:59.220Z,1976.00
2018-08-07T16:03:59.370Z,1884.00
2018-08-07T16:04:59.521Z,1836.00
2018-08-07T16:05:59.664Z,1804.00
2018-08-07T16:06:59.811Z,1764.00
2018-08-07T16:07:59.961Z,1736.00
2018-08-07T16:09:00.106Z,1696.00
2018-08-07T16:10:00.255Z,1676.00
2018-08-07T16:11:00.403Z,1632.00
2018-08-07T16:12:00.554Z,1604.00
2018-08-07T16:13:00.698Z,1588.00
2018-08-07T16:14:00.845Z,1548.00
2018-08-07T16:15:01.004Z,1480.00
2018-08-07T16:16:01.154Z,1448.00
2018-08-07T16:17:01.315Z,1428.00
2018-08-07T16:18:01.461Z,1404.00
2018-08-07T16:19:01.607Z,1336.00
2018-08-07T16:20:01.762Z,1308.00
2018-08-07T16:21:01.906Z,1252.00
2018-08-07T16:22:02.062Z,1208.00
2018-08-07T16:23:02.235Z,1180.00
2018-08-07T16:24:02.368Z,1112.00
2018-08-07T16:25:02.526Z,1088.00
2018-08-07T16:26:02.669Z,1024.00
2018-08-07T16:27:02.823Z,976.00
2018-08-07T16:28:02.971Z,948.00
2018-08-07T16:29:03.103Z,900.00
2018-08-07T16:30:03.263Z,872.00
2018-08-07T16:31:03.425Z,856.00
2018-08-07T16:32:03.575Z,824.00
2018-08-07T16:33:03.718Z,820.00
2018-08-07T16:34:03.898Z,820.00
2018-08-07T16:35:04.038Z,816.00
2018-08-07T16:36:04.184Z,808.00
2018-08-07T16:37:04.327Z,804.00
2018-08-07T16:38:04.493Z,804.00
2018-08-07T16:39:04.634Z,816.00
2018-08-07T16:40:04.781Z,812.00
2018-08-07T16:41:04.926Z,816.00
2018-08-07T16:42:05.123Z,816.00
2018-08-07T16:43:05.265Z,816.00
2018-08-07T16:44:05.419Z,828.00
2018-08-07T16:45:05.580Z,836.00
2018-08-07T16:46:05.757Z,844.00
2018-08-07T16:47:05.967Z,852.00
2018-08-07T16:48:05.990Z,844.00
2018-08-07T16:49:06.143Z,816.00
2018-08-07T16:50:06.278Z,784.00
2018-08-07T16:51:06.429Z,764.00
2018-08-07T16:52:06.585Z,756.00
2018-08-07T16:53:06.731Z,744.00
2018-08-07T16:54:06.874Z,744.00
2018-08-07T16:55:07.022Z,736.00
2018-08-07T16:56:07.165Z,736.00
2018-08-07T16:57:07.414Z,736.00
2018-08-07T16:58:07.497Z,736.00
2018-08-07T16:59:07.689Z,748.00
2018-08-07T17:00:07.836Z,768.00
2018-08-07T17:01:07.991Z,788.00
2018-08-07T17:02:08.147Z,812.00
2018-08-07T17:03:08.293Z,828.00
2018-08-07T17:04:08.445Z,832.00
2018-08-07T17:05:08.598Z,836.00
2018-08-07T17:06:08.757Z,840.00
2018-08-07T17:07:08.909Z,832.00
2018-08-07T17:08:09.060Z,820.00
2018-08-07T17:09:09.209Z,804.00
2018-08-07T17:10:09.354Z,784.00
2018-08-07T17:11:09.505Z,768.00
2018-08-07T17:12:09.653Z,748.00
2018-08-07T17:13:09.821Z,728.00
2018-08-07T17:14:09.975Z,712.00
2018-08-07T17:15:10.144Z,692.00
2018-08-07T17:16:10.289Z,672.00
2018-08-07T17:17:10.454Z,632.00
2018-08-07T17:18:10.603Z,636.00
2018-08-07T17:19:10.755Z,624.00
2018-08-07T17:20:10.904Z,632.00
2018-08-07T17:21:11.077Z,648.00
2018-08-07T17:22:11.230Z,652.00
2018-08-07T17:23:11.372Z,656.00
2018-08-07T17:24:11.528Z,668.00
2018-08-07T17:25:11.678Z,664.00
2018-08-07T17:26:11.827Z,672.00
2018-08-07T17:27:11.985Z,684.00
2018-08-07T17:28:12.129Z,688.00
2018-08-07T17:29:12.275Z,684.00
2018-08-07T17:30:12.419Z,680.00
2018-08-07T17:31:12.599Z,640.00
2018-08-07T17:32:12.725Z,636.00
2018-08-07T17:33:12.877Z,644.00
2018-08-07T17:34:13.062Z,616.00
2018-08-07T17:35:13.420Z,656.00
2018-08-07T17:36:13.341Z,664.00
2018-08-07T17:37:13.470Z,668.00
2018-08-07T17:38:13.620Z,676.00
2018-08-07T17:39:13.766Z,676.00
2018-08-07T17:40:13.910Z,664.00
2018-08-07T17:41:14.057Z,648.00
2018-08-07T17:42:14.210Z,632.00
2018-08-07T17:43:14.360Z,608.00
2018-08-07T17:44:14.507Z,588.00
2018-08-07T17:45:14.651Z,564.00
2018-08-07T17:46:14.797Z,548.00
2018-08-07T17:47:14.947Z,532.00
2018-08-07T17:48:15.094Z,516.00
2018-08-07T17:49:15.245Z,508.00
2018-08-07T17:50:15.398Z,500.00
2018-08-07T17:51:15.548Z,492.00
2018-08-07T17:52:15.693Z,484.00
2018-08-07T17:53:15.840Z,476.00
2018-08-07T17:54:15.985Z,476.00
2018-08-07T17:55:16.135Z,468.00
2018-08-07T17:56:16.284Z,456.00
2018-08-07T17:57:16.457Z,444.00
2018-08-07T17:58:16.576Z,436.00
2018-08-07T17:59:16.741Z,424.00
2018-08-07T18:00:17.124Z,408.00
2018-08-07T18:01:17.051Z,388.00
2018-08-07T18:02:17.203Z,368.00
2018-08-07T18:03:17.353Z,352.00
2018-08-07T18:04:17.601Z,336.00
2018-08-07T18:05:17.669Z,320.00
2018-08-07T18:06:18.659Z,300.00
2018-08-07T18:07:18.036Z,284.00
2018-08-07T18:08:18.178Z,268.00
2018-08-07T18:09:18.330Z,260.00
2018-08-07T18:10:18.478Z,252.00
2018-08-07T18:11:18.627Z,232.00
2018-08-07T18:12:18.772Z,220.00
2018-08-07T18:13:18.934Z,204.00
2018-08-07T18:14:19.120Z,192.00
2018-08-07T18:15:19.266Z,176.00
2018-08-07T18:16:19.410Z,176.00
2018-08-07T18:17:19.556Z,164.00
2018-08-07T18:18:19.722Z,156.00
2018-08-07T18:19:19.873Z,148.00
2018-08-07T18:20:20.021Z,140.00
2018-08-07T18:21:20.168Z,136.00
2018-08-07T18:22:20.437Z,132.00
2018-08-07T18:23:20.476Z,128.00
2018-08-07T18:24:20.617Z,124.00
2018-08-07T18:25:20.782Z,124.00
2018-08-07T18:26:20.946Z,120.00
2018-08-07T18:27:21.131Z,116.00
2018-08-07T18:28:21.258Z,112.00
2018-08-07T18:29:21.402Z,112.00
2018-08-07T18:30:21.543Z,112.00
2018-08-07T18:31:21.707Z,108.00
2018-08-07T18:32:21.846Z,104.00
2018-08-07T18:33:22.010Z,100.00
2018-08-07T18:34:22.163Z,100.00
2018-08-07T18:35:22.357Z,96.00
2018-08-07T18:36:22.608Z,92.00
2018-08-07T18:37:22.633Z,84.00
2018-08-07T18:38:22.790Z,80.00
2018-08-07T18:39:22.933Z,76.00
2018-08-07T18:40:23.084Z,72.00
2018-08-07T18:41:23.230Z,68.00
2018-08-07T18:42:23.381Z,64.00
2018-08-07T18:43:23.521Z,64.00
2018-08-07T18:44:23.715Z,60.00
2018-08-07T18:45:23.856Z,56.00
2018-08-07T18:46:24.002Z,56.00
2018-08-07T18:47:24.187Z,52.00
2018-08-07T18:48:24.314Z,48.00
2018-08-07T18:49:24.462Z,48.00
2018-08-07T18:50:24.622Z,44.00
2018-08-07T18:51:24.775Z,44.00
2018-08-07T18:52:24.903Z,44.00
2018-08-07T18:53:25.060Z,36.00
2018-08-07T18:54:25.205Z,36.00
2018-08-07T18:55:25.396Z,36.00
2018-08-07T18:56:25.550Z,32.00
2018-08-07T18:57:25.795Z,32.00
2018-08-07T18:58:25.864Z,28.00
2018-08-07T18:59:26.009Z,24.00
2018-08-07T19:00:26.152Z,24.00
2018-08-07T19:01:26.303Z,24.00
2018-08-07T19:02:26.452Z,20.00
2018-08-07T19:03:26.590Z,20.00
2018-08-07T19:04:26.737Z,20.00
2018-08-07T19:05:26.883Z,12.00
2018-08-07T19:06:27.034Z,12.00
2018-08-07T19:07:27.174Z,16.00
2018-08-07T19:08:27.317Z,12.00
2018-08-07T19:09:27.468Z,12.00
2018-08-07T19:10:27.652Z,8.00
2018-08-07T19:11:27.800Z,8.00
2018-08-07T19:12:27.937Z,8.00
2018-08-07T19:13:28.114Z,4.00
2018-08-07T19:14:28.264Z,4.00
2018-08-07T19:15:28.409Z,4.00
2018-08-07T19:16:28.568Z,4.00
2018-08-07T19:17:28.709Z,0.00
2018-08-07T19:18:28.920Z,4.00
2018-08-07T19:19:28.998Z,4.00
2018-08-07T19:20:29.137Z,0.00
2018-08-07T19:21:29.288Z,0.00
2018-08-07T19:22:29.426Z,0.00
2018-08-07T19:23:29.567Z,0.00
2018-08-07T19:24:29.709Z,0.00
2018-08-07T19:25:29.861Z,0.00
2018-08-07T19:26:30.005Z,0.00
2018-08-07T19:27:30.153Z,0.00
2018-08-07T19:28:30.300Z,0.00
2018-08-07T19:29:30.439Z,0.00
2018-08-07T19:30:30.584Z,0.00
2018-08-07T19:31:30.727Z,0.00
2018-08-07T19:32:30.888Z,0.00
2018-08-07T19:33:31.034Z,0.00
2018-08-07T19:34:31.169Z,0.00
2018-08-07T19:35:31.323Z,0.00
2018-08-07T19:36:31.469Z,0.00
2018-08-07T19:37:31.629Z,0.00
2018-08-07T19:38:31.769Z,0.00
2018-08-07T19:39:31.922Z,0.00
2018-08-07T19:40:32.062Z,0.00
2018-08-07T19:41:32.206Z,0.00
2018-08-07T19:42:32.359Z,0.00
2018-08-07T19:43:32.496Z,0.00
2018-08-07T19:44:32.641Z,0.00
2018-08-07T19:45:32.791Z,0.00
2018-08-07T19:46:32.930Z,0.00
2018-08-07T19:47:33.069Z,0.00
2018-08-07T19:48:33.238Z,0.00
2018-08-07T19:49:33.384Z,0.00
2018-08-07T19:50:33.529Z,0.00
2018-08-07T19:51:33.665Z,0.00
2018-08-07T19:52:33.824Z,0.00
2018-08-07T19:53:34.008Z,0.00
2018-08-07T19:54:34.123Z,0.00
2018-08-07T19:55:34.299Z,0.00
2018-08-07T19:56:34.414Z,0.00
2018-08-07T19:57:34.567Z,0.00
2018-08-07T19:58:34.729Z,0.00
2018-08-07T19:59:34.874Z,0.00
2018-08-07T20:00:35.031Z,0.00
2018-08-07T20:01:35.176Z,0.00
2018-08-07T20:02:35.327Z,0.00
2018-08-07T20:03:35.471Z,0.00
2018-08-07T20:04:35.612Z,0.00
2018-08-07T20:05:35.764Z,0.00
2018-08-07T20:06:36.052Z,0.00
2018-08-07T20:07:36.088Z,0.00
2018-08-07T20:08:36.227Z,0.00
2018-08-07T20:09:36.368Z,0.00
2018-08-07T20:10:36.592Z,0.00
2018-08-07T20:11:36.674Z,0.00
2018-08-07T20:12:36.820Z,0.00
2018-08-07T20:13:36.965Z,0.00
2018-08-07T20:14:37.119Z,0.00
2018-08-07T20:15:37.263Z,0.00
2018-08-07T20:16:37.407Z,0.00
2018-08-07T20:17:37.617Z,0.00
2018-08-07T20:18:37.722Z,0.00
2018-08-07T20:19:37.859Z,0.00
2018-08-07T20:20:38.011Z,0.00
2018-08-07T20:21:38.185Z,0.00
2018-08-07T20:22:38.329Z,0.00
2018-08-07T20:23:38.471Z,0.00
2018-08-07T20:24:38.616Z,0.00
2018-08-07T20:25:38.789Z,0.00
2018-08-07T20:26:38.936Z,0.00
2018-08-07T20:27:39.080Z,0.00
2018-08-07T20:28:39.223Z,0.00
2018-08-07T20:29:39.387Z,0.00
2018-08-07T20:30:39.537Z,0.00
2018-08-07T20:31:39.667Z,0.00
2018-08-07T20:32:39.817Z,0.00
2018-08-07T20:33:39.987Z,0.00
2018-08-07T20:34:40.133Z,0.00
2018-08-07T20:35:40.274Z,0.00
2018-08-07T20:36:40.475Z,0.00
2018-08-07T20:37:40.554Z,0.00
2018-08-07T20:38:40.757Z,0.00
2018-08-07T20:41:12.795Z,0.00
2018-08-07T20:42:12.962Z,0.00
2018-08-07T20:43:13.136Z,0.00
2018-08-07T20:44:13.199Z,0.00
2018-08-07T20:45:13.352Z,0.00
2018-08-07T20:46:13.503Z,0.00
2018-08-07T20:47:13.701Z,0.00
2018-08-07T20:48:13.840Z,0.00
2018-08-07T20:49:13.986Z,0.00
2018-08-07T20:50:14.125Z,0.00
2018-08-07T20:51:14.266Z,0.00
2018-08-07T20:52:14.420Z,0.00
2018-08-07T20:53:14.567Z,0.00
2018-08-07T20:54:14.706Z,0.00
2018-08-07T20:55:14.847Z,0.00
2018-08-07T20:56:14.994Z,0.00
2018-08-07T20:57:15.138Z,0.00
2018-08-07T20:58:15.282Z,0.00
2018-08-07T20:59:15.425Z,0.00
2018-08-07T21:00:15.571Z,0.00
2018-08-07T21:01:15.736Z,0.00
2018-08-07T21:02:15.872Z,0.00
2018-08-07T21:03:16.023Z,0.00
2018-08-07T21:04:16.168Z,0.00
2018-08-07T21:05:16.427Z,0.00
2018-08-07T21:06:16.476Z,0.00
2018-08-07T21:07:16.626Z,0.00
2018-08-07T21:08:16.768Z,0.00
2018-08-07T21:09:16.911Z,0.00
2018-08-07T21:10:17.057Z,0.00
2018-08-07T21:11:17.221Z,0.00
2018-08-07T21:12:17.363Z,0.00
2018-08-07T21:13:17.518Z,0.00
2018-08-07T21:14:17.688Z,0.00
2018-08-07T21:15:17.828Z,0.00
2018-08-07T21:16:18.019Z,0.00
2018-08-07T21:17:18.138Z,0.00
2018-08-07T21:18:18.279Z,0.00
2018-08-07T21:19:18.421Z,0.00
2018-08-07T21:20:18.607Z,0.00
2018-08-07T21:21:18.737Z,0.00
2018-08-07T21:22:18.885Z,0.00
2018-08-07T21:23:19.047Z,0.00
2018-08-07T21:24:19.192Z,0.00
2018-08-07T21:25:19.378Z,0.00
2018-08-07T21:26:19.514Z,0.00
2018-08-07T21:27:19.668Z,0.00
2018-08-07T21:28:19.808Z,0.00
2018-08-07T21:29:19.952Z,0.00
2018-08-07T21:30:20.106Z,0.00
2018-08-07T21:31:20.263Z,0.00
2018-08-07T21:32:20.407Z,0.00
2018-08-07T21:33:20.553Z,0.00
2018-08-07T21:34:20.706Z,0.00
2018-08-07T21:35:20.857Z,0.00
2018-08-07T21:36:21.007Z,0.00
2018-08-07T21:37:21.157Z,0.00
2018-08-07T21:38:21.300Z,0.00
2018-08-07T21:39:21.443Z,0.00
2018-08-07T21:40:21.591Z,0.00
2018-08-07T21:41:21.787Z,0.00
2018-08-07T21:42:21.874Z,0.00
2018-08-07T21:43:22.021Z,0.00
2018-08-07T21:44:22.171Z,0.00
2018-08-07T21:45:22.315Z,0.00
2018-08-07T21:46:22.457Z,0.00
2018-08-07T21:47:22.602Z,0.00
2018-08-07T21:48:22.754Z,0.00
2018-08-07T21:49:22.900Z,0.00
2018-08-07T21:50:23.035Z,0.00
2018-08-07T21:51:23.187Z,0.00
2018-08-07T21:52:23.332Z,0.00
2018-08-07T21:53:23.474Z,0.00
2018-08-07T21:54:23.622Z,0.00
2018-08-07T21:55:23.772Z,0.00
2018-08-07T21:56:23.938Z,0.00
2018-08-07T21:57:24.073Z,0.00
2018-08-07T21:58:24.227Z,0.00
2018-08-07T21:59:24.371Z,0.00
2018-08-07T22:00:24.551Z,0.00
2018-08-07T22:01:24.704Z,0.00
2018-08-07T22:02:24.852Z,0.00
2018-08-07T22:03:25.008Z,0.00
2018-08-07T22:04:25.164Z,0.00
2018-08-07T22:05:25.290Z,0.00
2018-08-07T22:06:25.436Z,0.00
2018-08-07T22:07:25.616Z,0.00
2018-08-07T22:08:25.762Z,0.00
2018-08-07T22:09:25.933Z,0.00
2018-08-07T22:10:26.082Z,0.00
2018-08-07T22:11:26.226Z,0.00
2018-08-07T22:12:26.423Z,0.00
2018-08-07T22:13:26.542Z,0.00
2018-08-07T22:14:26.683Z,0.00
2018-08-07T22:15:26.858Z,0.00
2018-08-07T22:16:26.998Z,0.00
2018-08-07T22:17:27.161Z,0.00